Sankuniki — JD2465 — position and weather

sailwx.info

Track history (hours):
 
Tides and Currents Weather Stations Pressure Air Temp Water Temp Dewpoint Dewpoint Depression Visibility Wind Speed Wind Dir Waves Ship Positions

Sankuniki

Last reported at 2015-Jul-06 17:33 UTC. Time now 2015-Jul-06 17:53 UTC.
Position N 35°29' E 139°59'.

Length 71 m; draft 4.3 m.

Type: Cargo ship. MMSI: 431000269.

Date/timePositionNaut miles runAvg speedWind from/ knotsBaromVisibWave heightAir tempDewpointWater temp
2015-Jul-06 17:33N 35°29' E 139°59'0 0.0
2015-Jul-06 16:33N 35°29' E 139°59'1 1.4
2015-Jul-06 15:33N 35°28' E 140°00'0 0.0
2015-Jul-06 14:33N 35°28' E 140°00'0 0.0
2015-Jul-06 13:33N 35°28' E 140°00'0 0.1
2015-Jul-06 12:33N 35°28' E 139°60'5 5.2
2015-Jul-06 11:33N 35°29' E 139°54'1211.5
2015-Jul-06 10:33N 35°28' E 139°39'0 0.5
2015-Jul-06 09:33N 35°29' E 139°39'2 1.7
2015-Jul-06 08:33N 35°27' E 139°40'1111.3
2015-Jul-06 07:33N 35°22' E 139°53'0 0.0
2015-Jul-06 06:33N 35°22' E 139°53'0 0.0
2015-Jul-06 05:33N 35°22' E 139°53'0 0.0
2015-Jul-06 04:34N 35°22' E 139°53'0 0.0
2015-Jul-06 03:33N 35°22' E 139°53'0 0.0
2015-Jul-06 02:33N 35°22' E 139°53'0 0.0
2015-Jul-06 01:33N 35°22' E 139°53'0 0.0
2015-Jul-06 00:33N 35°22' E 139°53'2 1.6
2015-Jul-05 23:32N 35°23' E 139°51'2 1.7
2015-Jul-05 22:33N 35°23' E 139°49'0 0.1
2015-Jul-05 21:33N 35°23' E 139°49'0 0.1
2015-Jul-05 20:33N 35°23' E 139°49'0 0.0
2015-Jul-05 19:33N 35°23' E 139°49'0 0.0
2015-Jul-05 18:33N 35°23' E 139°49'0 0.0
2015-Jul-05 17:33N 35°23' E 139°49'0 0.0
2015-Jul-05 16:33N 35°23' E 139°49'0 0.0
2015-Jul-05 15:33N 35°23' E 139°49'4 3.6
2015-Jul-05 14:33N 35°21' E 139°45'10 9.9
2015-Jul-05 13:33N 35°12' E 139°47'1110.7
2015-Jul-05 12:33N 35°03' E 139°39'  
2015-Jun-29 02:21N 34°08' E 134°59'1011.9
2015-Jun-29 01:33N 34°15' E 135°07'0 0.2
2015-Jun-29 00:33N 34°15' E 135°07'0 0.0
2015-Jun-28 23:33N 34°15' E 135°07'0 0.5
2015-Jun-28 22:33N 34°14' E 135°07'1 0.9
2015-Jun-28 21:33N 34°15' E 135°06'0 0.0
2015-Jun-28 20:33N 34°15' E 135°06'0 0.0
2015-Jun-28 19:33N 34°15' E 135°06'0 0.0
2015-Jun-28 18:33N 34°15' E 135°06'0 0.0
2015-Jun-28 17:33N 34°15' E 135°06'0 0.0
2015-Jun-28 16:33N 34°15' E 135°06'0 0.0
2015-Jun-28 15:33N 34°15' E 135°06'7 7.3
2015-Jun-28 14:33N 34°08' E 135°03'  
Track history (hours):
 
Tides and Currents Weather Stations Pressure Air Temp Water Temp Dewpoint Dewpoint Depression Visibility Wind Speed Wind Dir Waves Ship Positions

Sankuniki

Last reported at 2015-Jul-06 17:33 UTC. Time now 2015-Jul-06 17:53 UTC.
Position N 35°29' E 139°59'.

Length 71 m; draft 4.3 m.

Type: Cargo ship. MMSI: 431000269.

Date/timePositionNaut miles runAvg speedWind from/ knotsBaromVisibWave heightAir tempDewpointWater temp
2015-Jul-06 17:33N 35°29' E 139°59'0 0.0
2015-Jul-06 16:33N 35°29' E 139°59'1 1.4
2015-Jul-06 15:33N 35°28' E 140°00'0 0.0
2015-Jul-06 14:33N 35°28' E 140°00'0 0.0
2015-Jul-06 13:33N 35°28' E 140°00'0 0.1
2015-Jul-06 12:33N 35°28' E 139°60'5 5.2
2015-Jul-06 11:33N 35°29' E 139°54'1211.5
2015-Jul-06 10:33N 35°28' E 139°39'0 0.5
2015-Jul-06 09:33N 35°29' E 139°39'2 1.7
2015-Jul-06 08:33N 35°27' E 139°40'1111.3
2015-Jul-06 07:33N 35°22' E 139°53'0 0.0
2015-Jul-06 06:33N 35°22' E 139°53'0 0.0
2015-Jul-06 05:33N 35°22' E 139°53'0 0.0
2015-Jul-06 04:34N 35°22' E 139°53'0 0.0
2015-Jul-06 03:33N 35°22' E 139°53'0 0.0
2015-Jul-06 02:33N 35°22' E 139°53'0 0.0
2015-Jul-06 01:33N 35°22' E 139°53'0 0.0
2015-Jul-06 00:33N 35°22' E 139°53'2 1.6
2015-Jul-05 23:32N 35°23' E 139°51'2 1.7
2015-Jul-05 22:33N 35°23' E 139°49'0 0.1
2015-Jul-05 21:33N 35°23' E 139°49'0 0.1
2015-Jul-05 20:33N 35°23' E 139°49'0 0.0
2015-Jul-05 19:33N 35°23' E 139°49'0 0.0
2015-Jul-05 18:33N 35°23' E 139°49'0 0.0
2015-Jul-05 17:33N 35°23' E 139°49'0 0.0
2015-Jul-05 16:33N 35°23' E 139°49'0 0.0
2015-Jul-05 15:33N 35°23' E 139°49'4 3.6
2015-Jul-05 14:33N 35°21' E 139°45'10 9.9
2015-Jul-05 13:33N 35°12' E 139°47'1110.7
2015-Jul-05 12:33N 35°03' E 139°39'  
2015-Jun-29 02:21N 34°08' E 134°59'1011.9
2015-Jun-29 01:33N 34°15' E 135°07'0 0.2
2015-Jun-29 00:33N 34°15' E 135°07'0 0.0
2015-Jun-28 23:33N 34°15' E 135°07'0 0.5
2015-Jun-28 22:33N 34°14' E 135°07'1 0.9
2015-Jun-28 21:33N 34°15' E 135°06'0 0.0
2015-Jun-28 20:33N 34°15' E 135°06'0 0.0
2015-Jun-28 19:33N 34°15' E 135°06'0 0.0
2015-Jun-28 18:33N 34°15' E 135°06'0 0.0
2015-Jun-28 17:33N 34°15' E 135°06'0 0.0
2015-Jun-28 16:33N 34°15' E 135°06'0 0.0
2015-Jun-28 15:33N 34°15' E 135°06'7 7.3
2015-Jun-28 14:33N 34°08' E 135°03'  

Dump ship's entire track history